Esterel, Canada
Current Conditions -  °F | °C
As of 5:00 PM on Saturday 25 Oct 2014 (Local Time) from CYMX Reporting Station
Rain Showers Rain Showers  
Wind Chill: 50°   Ceiling: 3200
Heat Index: 50°   Visibility: 4mi
Dew Point: 50°   Wind: 2mph
Humidity: 100%   Direction: 90°E
Pressure: 29.49"   Gusts: NA
Location:  46.03°N, 74.03°W
Report Text: CYMX 252100Z 09002KT 4SM -SHRA BR FEW022 OVC032 10/10 A2949 RMK SC2SC6 SLP989
Loading
Personal Weather Stations






























Interactive Weather Map
Tropical Storm Tracking
New forecast layout! Learn more

10-Day Weather Forecast

Advertisements
Track Severe Weather on mobile